Time;durP1;ratioP1;P1;durP2;ratioP2;P2;SDS_P1;SDS_P2;PMS_P1;PMS_P2;Temp;Humidity;BMP_temperature;BMP_pressure;BME280_temperature;BME280_humidity;BME280_pressure;Samples;Min_cycle;Max_cycle;Signal;HPM_P1;HPM_P2
2022/04/16 00:04:42;;;;;;;;;;;;;;;;;;5007453;28;19929;-60
2022/04/16 00:07:08;;;;;;;;;;;;;;;;;;5007147;28;19921;-60
2022/04/16 00:09:48;;;;;;;;;;;;;;;;;;5007277;28;19941;-60
2022/04/16 00:15:09;;;;;;;;;;;;;;;;;;5003723;28;19906;-60
2022/04/16 00:17:36;;;;;;;;;;;;;;;;;;5006864;28;19930;-60
2022/04/16 00:20:17;;;;;;;;;;;;;;;;;;4984772;28;19965;-60
2022/04/16 00:23:15;;;;;;;;;;;;;;;;;;;;;
2022/04/16 00:25:34;;;;;;;;;;;;;;;;;;4979653;28;19998;-60
2022/04/16 00:28:03;;;;;;;;;;;;;;;;;;4967746;28;19937;-60
2022/04/16 00:30:41;;;;;;;;;;;;;;;;;;4984989;28;19906;-60
2022/04/16 00:33:08;;;;;;;;;;;;;;;;;;4984786;28;19910;-60
2022/04/16 00:35:49;;;;;;;;;;;;;;;;;;4985021;28;19906;-60
2022/04/16 00:38:18;;;;;;;;;;;;;;;;;;4983937;28;19906;-60
2022/04/16 00:40:47;;;;;;;;;;;;;;;;;;4985836;28;19928;-60
2022/04/16 00:46:02;;;;;;;;;;;;;;;;;;4973020;28;19993;-60
2022/04/16 00:48:40;;;;;;;;;;;;;;;;;;4983986;28;19917;-60
2022/04/16 00:51:08;;;;;;;;;;;;;;;;;;4997048;28;19906;-60
2022/04/16 00:53:34;;;;;;;;;;;;;;;;;;5006726;28;19906;-59
2022/04/16 00:56:06;;;;;;;;;;;;;;;;;;5005271;28;19913;-59
2022/04/16 01:01:33;;;;;;;;;;;;;;;;;;4984188;28;19925;-60
2022/04/16 01:04:08;;;;;;;;;;;;;;;;;;4994919;28;19906;-60
2022/04/16 01:06:50;;;;;;;;;;;;;;;;;;;;;
2022/04/16 01:09:22;;;;;;;;;;;;;;;;;;5005193;28;19956;-60
2022/04/16 01:11:51;;;;;;;;;;;;;;;;;;5005949;28;19988;-60
2022/04/16 01:17:36;;;;;;;;;;;;;;;;;;;;;
2022/04/16 01:20:15;;;;;;;;;;;;;;;;;;;;;
2022/04/16 01:22:48;;;;;;;;;;;;;;;;;;5006189;28;19941;-60
2022/04/16 01:25:27;;;;;;;;;;;;;;;;;;5006676;28;19937;-60
2022/04/16 01:30:44;;;;;;;;;;;;;;;;;;5006385;28;19933;-60
2022/04/16 01:33:30;;;;;;;;;;;;;;;;;;5005552;28;19910;-60
2022/04/16 01:35:59;;;;;;;;;;;;;;;;;;5006054;28;19906;-60
2022/04/16 01:38:41;;;;;;;;;;;;;;;;;;5005330;28;20244;-60
2022/04/16 01:41:10;;;;;;;;;;;;;;;;;;5005796;28;20262;-60
2022/04/16 01:43:48;;;;;;;;;;;;;;;;;;5005863;28;19941;-60
2022/04/16 01:51:57;;;;;;;;;;;;;;;;;;4993388;28;19948;-60
2022/04/16 01:54:24;;;;;;;;;;;;;;;;;;5005913;28;20360;-60
2022/04/16 01:56:53;;;;;;;;;;;;;;;;;;5005700;28;19910;-60
2022/04/16 01:59:52;;;;;;;;;;;;;;;;;;5005543;28;19913;-60
2022/04/16 02:02:12;;;;;;;;;;;;;;;;;;5004121;28;20422;-60
2022/04/16 02:07:41;;;;;;;;;;;;;;;;;;4995309;28;19914;-60
2022/04/16 02:10:36;;;;;;;;;;;;;;;;;;;;;
2022/04/16 02:13:03;;;;;;;;;;;;;;;;;;5005455;28;19933;-60
2022/04/16 02:21:22;;;;;;;;;;;;;;;;;;5006126;28;19913;-60
2022/04/16 02:23:54;;;;;;;;;;;;;;;;;;5005904;28;20351;-60
2022/04/16 02:26:26;;;;;;;;;;;;;;;;;;5009449;28;19913;-60
2022/04/16 02:29:08;;;;;;;;;;;;;;;;;;5007285;28;19906;-60
2022/04/16 02:31:37;;;;;;;;;;;;;;;;;;5009796;28;19965;-60
2022/04/16 02:34:07;;;;;;;;;;;;;;;;;;5008384;28;19905;-60
2022/04/16 02:36:33;;;;;;;;;;;;;;;;;;5009890;28;19910;-60
2022/04/16 02:41:52;;;;;;;;;;;;;;;;;;5006445;28;19906;-60
2022/04/16 02:47:13;;;;;;;;;;;;;;;;;;5009477;28;19921;-60
2022/04/16 02:52:44;;;;;;;;;;;;;;;;;;;;;
2022/04/16 02:55:16;;;;;;;;;;;;;;;;;;4969375;28;19969;-60
2022/04/16 02:57:56;;;;;;;;;;;;;;;;;;4986380;28;19938;-60
2022/04/16 03:00:27;;;;;;;;;;;;;;;;;;4987117;28;19906;-60
2022/04/16 03:02:57;;;;;;;;;;;;;;;;;;4987172;28;19906;-60
2022/04/16 03:05:23;;;;;;;;;;;;;;;;;;5005936;28;19929;-60
2022/04/16 03:07:50;;;;;;;;;;;;;;;;;;5007564;28;19918;-60
2022/04/16 03:10:16;;;;;;;;;;;;;;;;;;5007084;28;19913;-60
2022/04/16 03:12:55;;;;;;;;;;;;;;;;;;5009950;28;19977;-60
2022/04/16 03:18:07;;;;;;;;;;;;;;;;;;5008744;28;19928;-60
2022/04/16 03:20:37;;;;;;;;;;;;;;;;;;5009586;28;19969;-60
2022/04/16 03:23:18;;;;;;;;;;;;;;;;;;5007991;28;19956;-60
2022/04/16 03:25:44;;;;;;;;;;;;;;;;;;5008914;28;19905;-60
2022/04/16 03:31:08;;;;;;;;;;;;;;;;;;4997002;28;19912;-60
2022/04/16 03:33:40;;;;;;;;;;;;;;;;;;4995374;28;20395;-60
2022/04/16 03:36:22;;;;;;;;;;;;;;;;;;4996243;28;20331;-60
2022/04/16 03:38:48;;;;;;;;;;;;;;;;;;4995862;28;20362;-60
2022/04/16 03:41:24;;;;;;;;;;;;;;;;;;4994407;28;19906;-60
2022/04/16 03:46:58;;;;;;;;;;;;;;;;;;4991358;28;19914;-60
2022/04/16 03:49:27;;;;;;;;;;;;;;;;;;4995619;28;19913;-60
2022/04/16 03:52:24;;;;;;;;;;;;;;;;;;;;;
2022/04/16 04:00:22;;;;;;;;;;;;;;;;;;4996144;28;19909;-60
2022/04/16 04:02:48;;;;;;;;;;;;;;;;;;4993889;28;20421;-60
2022/04/16 04:05:30;;;;;;;;;;;;;;;;;;;;;
2022/04/16 04:08:07;;;;;;;;;;;;;;;;;;4995311;28;19914;-59
2022/04/16 04:10:37;;;;;;;;;;;;;;;;;;4993735;28;20352;-60
2022/04/16 04:13:23;;;;;;;;;;;;;;;;;;4998755;28;20440;-60
2022/04/16 04:16:07;;;;;;;;;;;;;;;;;;4995457;28;20399;-60
2022/04/16 04:21:23;;;;;;;;;;;;;;;;;;4995362;28;19912;-59
2022/04/16 04:23:58;;;;;;;;;;;;;;;;;;4995423;28;20444;-60
2022/04/16 04:29:19;;;;;;;;;;;;;;;;;;4990984;28;19906;-60
2022/04/16 04:34:53;;;;;;;;;;;;;;;;;;4986730;28;20016;-60
2022/04/16 04:37:46;;;;;;;;;;;;;;;;;;4994686;28;20271;-60
2022/04/16 04:40:18;;;;;;;;;;;;;;;;;;4994300;28;19960;-60
2022/04/16 04:42:47;;;;;;;;;;;;;;;;;;4994901;28;19988;-60
2022/04/16 04:45:14;;;;;;;;;;;;;;;;;;4992180;28;19912;-60
2022/04/16 04:47:43;;;;;;;;;;;;;;;;;;4991122;28;20364;-60
2022/04/16 04:50:12;;;;;;;;;;;;;;;;;;4994242;28;20271;-60
2022/04/16 05:01:24;;;;;;;;;;;;;;;;;;;;;
2022/04/16 05:06:48;;;;;;;;;;;;;;;;;;4896292;29;19919;-59
2022/04/16 05:09:20;;;;;;;;;;;;;;;;;;4895433;29;19907;-59
2022/04/16 05:11:49;;;;;;;;;;;;;;;;;;4961937;28;19902;-59
2022/04/16 05:14:28;;;;;;;;;;;;;;;;;;4972788;28;20434;-59
2022/04/16 05:16:57;;;;;;;;;;;;;;;;;;4972846;28;19902;-59
2022/04/16 05:19:55;;;;;;;;;;;;;;;;;;;;;
2022/04/16 05:22:30;;;;;;;;;;;;;;;;;;4982581;28;20307;-59
2022/04/16 05:25:17;;;;;;;;;;;;;;;;;;4993094;28;20414;-59
2022/04/16 05:27:46;;;;;;;;;;;;;;;;;;4993343;28;19918;-59
2022/04/16 05:33:05;;;;;;;;;;;;;;;;;;4994270;28;19913;-59
2022/04/16 05:38:50;;;;;;;;;;;;;;;;;;4971696;28;19910;-59
2022/04/16 05:44:10;;;;;;;;;;;;;;;;;;;;;
2022/04/16 05:46:37;;;;;;;;;;;;;;;;;;4994371;28;19914;-60
2022/04/16 05:52:00;;;;;;;;;;;;;;;;;;;;;
2022/04/16 05:54:32;;;;;;;;;;;;;;;;;;4994267;28;19966;-58
2022/04/16 05:57:01;;;;;;;;;;;;;;;;;;4994226;28;19905;-58
2022/04/16 05:59:47;;;;;;;;;;;;;;;;;;;;;
2022/04/16 06:02:16;;;;;;;;;;;;;;;;;;4998031;28;20281;-58
2022/04/16 06:04:44;;;;;;;;;;;;;;;;;;4991721;28;19937;-58
2022/04/16 06:07:11;;;;;;;;;;;;;;;;;;4993601;28;20173;-58
2022/04/16 06:09:58;;;;;;;;;;;;;;;;;;4997739;28;19988;-58
2022/04/16 06:12:23;;;;;;;;;;;;;;;;;;4997586;28;19913;-58
2022/04/16 06:15:00;;;;;;;;;;;;;;;;;;4998047;28;20422;-58
2022/04/16 06:17:35;;;;;;;;;;;;;;;;;;4995523;28;20368;-59
2022/04/16 06:20:10;;;;;;;;;;;;;;;;;;4991688;28;19906;-59
2022/04/16 06:22:46;;;;;;;;;;;;;;;;;;;;;
2022/04/16 06:25:15;;;;;;;;;;;;;;;;;;4994519;28;19910;-59
2022/04/16 06:33:15;;;;;;;;;;;;;;;;;;4997771;28;20000;-59
2022/04/16 06:38:38;;;;;;;;;;;;;;;;;;5001456;28;19913;-59
2022/04/16 06:41:06;;;;;;;;;;;;;;;;;;4996599;28;20415;-59
2022/04/16 06:43:38;;;;;;;;;;;;;;;;;;4997152;28;19976;-58
2022/04/16 06:46:13;;;;;;;;;;;;;;;;;;4996973;28;19975;-59
2022/04/16 06:48:55;;;;;;;;;;;;;;;;;;;;;
2022/04/16 06:51:39;;;;;;;;;;;;;;;;;;4994681;28;19905;-59
2022/04/16 06:54:05;;;;;;;;;;;;;;;;;;4995732;28;20392;-59
2022/04/16 06:56:34;;;;;;;;;;;;;;;;;;4997547;28;19944;-59
2022/04/16 06:59:03;;;;;;;;;;;;;;;;;;4996548;28;19956;-59
2022/04/16 07:04:27;;;;;;;;;;;;;;;;;;4975147;28;20017;-59
2022/04/16 07:06:56;;;;;;;;;;;;;;;;;;4975427;28;19921;-58
2022/04/16 07:09:38;;;;;;;;;;;;;;;;;;;;;
2022/04/16 07:12:07;;;;;;;;;;;;;;;;;;4974400;28;19920;-58
2022/04/16 07:14:39;;;;;;;;;;;;;;;;;;4958965;28;20364;-58
2022/04/16 07:17:11;;;;;;;;;;;;;;;;;;4974124;28;19929;-59
2022/04/16 07:19:41;;;;;;;;;;;;;;;;;;4974672;28;19960;-59
2022/04/16 07:22:09;;;;;;;;;;;;;;;;;;4988449;28;19956;-59
2022/04/16 07:24:53;;;;;;;;;;;;;;;;;;4996474;28;20303;-59
2022/04/16 07:27:25;;;;;;;;;;;;;;;;;;4993951;28;19914;-59
2022/04/16 07:32:54;;;;;;;;;;;;;;;;;;4996077;28;19912;-59
2022/04/16 07:35:38;;;;;;;;;;;;;;;;;;4996376;28;19936;-58
2022/04/16 07:38:07;;;;;;;;;;;;;;;;;;4993035;28;20378;-59
2022/04/16 07:40:37;;;;;;;;;;;;;;;;;;4994819;28;20336;-58
2022/04/16 07:43:05;;;;;;;;;;;;;;;;;;4996093;28;20272;-58
2022/04/16 07:45:51;;;;;;;;;;;;;;;;;;4995613;28;20430;-58
2022/04/16 07:48:22;;;;;;;;;;;;;;;;;;4994986;28;19918;-58
2022/04/16 07:50:54;;;;;;;;;;;;;;;;;;4995896;28;19959;-58
2022/04/16 07:53:23;;;;;;;;;;;;;;;;;;4995937;28;19967;-58
2022/04/16 07:55:51;;;;;;;;;;;;;;;;;;4996102;28;19905;-58
2022/04/16 07:58:20;;;;;;;;;;;;;;;;;;4995307;28;19909;-58
2022/04/16 08:04:02;;;;;;;;;;;;;;;;;;4973923;28;19906;-59
2022/04/16 08:06:34;;;;;;;;;;;;;;;;;;4973771;28;19905;-58
2022/04/16 08:09:16;;;;;;;;;;;;;;;;;;4956299;28;19914;-58
2022/04/16 08:12:00;;;;;;;;;;;;;;;;;;4957288;28;20391;-58
2022/04/16 08:17:31;;;;;;;;;;;;;;;;;;4955793;28;19980;-59
2022/04/16 08:19:59;;;;;;;;;;;;;;;;;;4957186;28;20181;-59
2022/04/16 08:27:59;;;;;;;;;;;;;;;;;;4994884;28;20395;-59
2022/04/16 08:30:28;;;;;;;;;;;;;;;;;;4994592;28;19906;-59
2022/04/16 08:32:55;;;;;;;;;;;;;;;;;;4993975;28;19902;-59
2022/04/16 08:35:26;;;;;;;;;;;;;;;;;;4994841;28;20367;-59
2022/04/16 08:38:09;;;;;;;;;;;;;;;;;;4994255;28;19902;-59
2022/04/16 08:40:43;;;;;;;;;;;;;;;;;;4995486;28;19941;-60
2022/04/16 08:43:15;;;;;;;;;;;;;;;;;;4994839;28;19902;-59
2022/04/16 08:48:45;;;;;;;;;;;;;;;;;;;;;
2022/04/16 08:57:12;;;;;;;;;;;;;;;;;;4994859;28;20005;-59
2022/04/16 08:59:45;;;;;;;;;;;;;;;;;;4994920;28;19937;-60
2022/04/16 09:02:11;;;;;;;;;;;;;;;;;;4995014;28;20368;-59
2022/04/16 09:04:46;;;;;;;;;;;;;;;;;;4998951;28;20245;-59
2022/04/16 09:07:12;;;;;;;;;;;;;;;;;;4986272;28;20299;-60
2022/04/16 09:12:27;;;;;;;;;;;;;;;;;;4994313;28;19914;-60
2022/04/16 09:18:00;;;;;;;;;;;;;;;;;;;;;
2022/04/16 09:20:35;;;;;;;;;;;;;;;;;;4952465;29;20467;-60
2022/04/16 09:23:01;;;;;;;;;;;;;;;;;;4994363;28;19902;-60
2022/04/16 09:25:48;;;;;;;;;;;;;;;;;;4994357;28;20283;-60
2022/04/16 09:28:14;;;;;;;;;;;;;;;;;;4992846;28;20004;-60
2022/04/16 09:30:49;;;;;;;;;;;;;;;;;;4994454;28;19906;-60
2022/04/16 09:33:27;;;;;;;;;;;;;;;;;;4991384;28;19902;-60
2022/04/16 09:35:59;;;;;;;;;;;;;;;;;;4993781;28;20360;-60
2022/04/16 09:41:10;;;;;;;;;;;;;;;;;;4994228;28;19968;-60
2022/04/16 09:43:43;;;;;;;;;;;;;;;;;;4992352;28;20148;-60
2022/04/16 09:49:06;;;;;;;;;;;;;;;;;;4992950;28;19920;-60
2022/04/16 09:51:48;;;;;;;;;;;;;;;;;;4971686;28;20352;-60
2022/04/16 09:54:35;;;;;;;;;;;;;;;;;;4975066;28;19940;-60
2022/04/16 09:57:04;;;;;;;;;;;;;;;;;;4987081;28;20336;-60
2022/04/16 09:59:45;;;;;;;;;;;;;;;;;;4992621;28;20347;-60
2022/04/16 10:02:12;;;;;;;;;;;;;;;;;;4971577;28;20367;-60
2022/04/16 10:04:41;;;;;;;;;;;;;;;;;;4960609;28;19906;-59
2022/04/16 10:13:07;;;;;;;;;;;;;;;;;;4993717;28;19921;-60
2022/04/16 10:15:42;;;;;;;;;;;;;;;;;;4993795;28;20279;-60
2022/04/16 10:20:55;;;;;;;;;;;;;;;;;;4986058;28;19924;-58
2022/04/16 10:31:58;;;;;;;;;;;;;;;;;;4981261;28;19906;-58
2022/04/16 10:37:37;;;;;;;;;;;;;;;;;;4906310;29;19907;-58
2022/04/16 10:45:49;;;;;;;;;;;;;;;;;;4970560;28;19936;-58
2022/04/16 10:48:46;;;;;;;;;;;;;;;;;;;;;
2022/04/16 10:54:02;;;;;;;;;;;;;;;;;;5005538;28;19906;-59
2022/04/16 10:56:40;;;;;;;;;;;;;;;;;;5009654;28;19913;-59
2022/04/16 10:59:25;;;;;;;;;;;;;;;;;;5008406;28;19917;-59
2022/04/16 11:01:58;;;;;;;;;;;;;;;;;;5008187;28;19906;-59
2022/04/16 11:07:20;;;;;;;;;;;;;;;;;;4996364;28;19913;-59
2022/04/16 11:09:52;;;;;;;;;;;;;;;;;;5006550;28;19906;-59
2022/04/16 11:12:20;;;;;;;;;;;;;;;;;;5003240;28;19913;-59
2022/04/16 11:14:49;;;;;;;;;;;;;;;;;;5003914;28;19944;-59
2022/04/16 11:17:21;;;;;;;;;;;;;;;;;;5002460;28;20260;-59
2022/04/16 11:19:53;;;;;;;;;;;;;;;;;;5004367;28;19992;-59
2022/04/16 11:22:22;;;;;;;;;;;;;;;;;;5005099;28;19913;-59
2022/04/16 11:24:50;;;;;;;;;;;;;;;;;;5004909;28;19906;-58
2022/04/16 11:35:32;;;;;;;;;;;;;;;;;;5005711;28;19960;-59
2022/04/16 11:38:13;;;;;;;;;;;;;;;;;;5004253;28;19913;-59
2022/04/16 11:40:50;;;;;;;;;;;;;;;;;;;;;
2022/04/16 11:43:28;;;;;;;;;;;;;;;;;;5005399;28;19981;-59
2022/04/16 11:46:00;;;;;;;;;;;;;;;;;;5007007;28;19929;-59
2022/04/16 11:48:38;;;;;;;;;;;;;;;;;;5005857;28;19914;-59
2022/04/16 11:51:08;;;;;;;;;;;;;;;;;;5006289;28;19906;-59
2022/04/16 11:53:34;;;;;;;;;;;;;;;;;;5004142;28;19906;-59
2022/04/16 11:56:10;;;;;;;;;;;;;;;;;;5006304;28;20000;-60
2022/04/16 12:01:47;;;;;;;;;;;;;;;;;;;;;
2022/04/16 12:04:23;;;;;;;;;;;;;;;;;;5005846;28;19933;-59
2022/04/16 12:07:04;;;;;;;;;;;;;;;;;;5005352;28;19913;-59
2022/04/16 12:09:31;;;;;;;;;;;;;;;;;;5007290;28;19906;-59
2022/04/16 12:12:19;;;;;;;;;;;;;;;;;;;;;
2022/04/16 12:14:49;;;;;;;;;;;;;;;;;;5007529;28;19951;-59
2022/04/16 12:17:28;;;;;;;;;;;;;;;;;;5006230;28;19906;-59
2022/04/16 12:20:07;;;;;;;;;;;;;;;;;;5007103;28;19913;-59
2022/04/16 12:22:33;;;;;;;;;;;;;;;;;;5007347;28;19917;-59
2022/04/16 12:25:09;;;;;;;;;;;;;;;;;;;;;
2022/04/16 12:27:44;;;;;;;;;;;;;;;;;;5006693;28;19977;-60
2022/04/16 12:30:26;;;;;;;;;;;;;;;;;;;;;
2022/04/16 12:32:56;;;;;;;;;;;;;;;;;;5006944;28;19976;-59
2022/04/16 12:35:40;;;;;;;;;;;;;;;;;;5005918;28;19905;-59
2022/04/16 12:38:17;;;;;;;;;;;;;;;;;;4983253;28;19937;-59
2022/04/16 12:43:49;;;;;;;;;;;;;;;;;;;;;
2022/04/16 12:49:03;;;;;;;;;;;;;;;;;;5005250;28;19956;-59
2022/04/16 12:51:48;;;;;;;;;;;;;;;;;;5006264;28;19913;-59
2022/04/16 13:00:17;;;;;;;;;;;;;;;;;;4968746;28;19953;-59
2022/04/16 13:02:52;;;;;;;;;;;;;;;;;;5005394;28;19905;-59
2022/04/16 13:05:29;;;;;;;;;;;;;;;;;;5006278;28;19917;-59
2022/04/16 13:07:59;;;;;;;;;;;;;;;;;;4999434;28;19921;-59
2022/04/16 13:10:28;;;;;;;;;;;;;;;;;;5002530;28;19906;-60
2022/04/16 13:13:04;;;;;;;;;;;;;;;;;;5004766;28;19905;-59
2022/04/16 13:15:37;;;;;;;;;;;;;;;;;;5005771;28;19906;-59
2022/04/16 13:18:09;;;;;;;;;;;;;;;;;;5004711;28;19988;-59
2022/04/16 13:20:35;;;;;;;;;;;;;;;;;;5005528;28;20472;-59
2022/04/16 13:23:23;;;;;;;;;;;;;;;;;;5005497;28;19965;-60
2022/04/16 13:25:48;;;;;;;;;;;;;;;;;;5005216;28;19921;-59
2022/04/16 13:28:23;;;;;;;;;;;;;;;;;;5004847;28;19913;-59
2022/04/16 13:30:53;;;;;;;;;;;;;;;;;;5004758;28;19906;-59
2022/04/16 13:33:43;;;;;;;;;;;;;;;;;;5005023;28;19906;-59
2022/04/16 13:36:09;;;;;;;;;;;;;;;;;;5004297;28;19984;-59
2022/04/16 13:38:54;;;;;;;;;;;;;;;;;;5004586;28;19906;-59
2022/04/16 13:41:38;;;;;;;;;;;;;;;;;;5005069;28;19906;-59
2022/04/16 13:44:16;;;;;;;;;;;;;;;;;;5003393;28;19969;-60
2022/04/16 13:46:42;;;;;;;;;;;;;;;;;;5002311;28;19906;-59
2022/04/16 13:49:17;;;;;;;;;;;;;;;;;;5001693;28;19912;-59
2022/04/16 13:51:50;;;;;;;;;;;;;;;;;;5000803;28;19906;-58
2022/04/16 13:57:29;;;;;;;;;;;;;;;;;;4997104;28;19910;-59
2022/04/16 14:00:01;;;;;;;;;;;;;;;;;;4981294;28;19913;-59
2022/04/16 14:02:41;;;;;;;;;;;;;;;;;;5003881;28;19910;-60
2022/04/16 14:07:56;;;;;;;;;;;;;;;;;;5003033;28;19920;-59
2022/04/16 14:10:28;;;;;;;;;;;;;;;;;;5003405;28;19906;-59
2022/04/16 14:12:54;;;;;;;;;;;;;;;;;;5002220;28;19905;-58
2022/04/16 14:15:24;;;;;;;;;;;;;;;;;;5002615;28;19906;-59
2022/04/16 14:18:09;;;;;;;;;;;;;;;;;;5002257;28;19906;-58
2022/04/16 14:20:48;;;;;;;;;;;;;;;;;;5003816;28;19913;-59
2022/04/16 14:23:20;;;;;;;;;;;;;;;;;;5006450;28;19917;-60
2022/04/16 14:25:49;;;;;;;;;;;;;;;;;;5005528;28;20311;-58
2022/04/16 14:28:29;;;;;;;;;;;;;;;;;;;;;
2022/04/16 14:31:09;;;;;;;;;;;;;;;;;;4996515;28;19973;-58
2022/04/16 14:36:43;;;;;;;;;;;;;;;;;;4981607;28;19925;-60
2022/04/16 14:41:58;;;;;;;;;;;;;;;;;;4984246;28;19912;-59
2022/04/16 14:44:34;;;;;;;;;;;;;;;;;;4981673;28;19906;-59
2022/04/16 14:47:21;;;;;;;;;;;;;;;;;;4982953;28;19925;-59
2022/04/16 14:52:43;;;;;;;;;;;;;;;;;;4982401;28;19940;-59
2022/04/16 14:55:12;;;;;;;;;;;;;;;;;;5003486;28;19974;-59
2022/04/16 14:57:48;;;;;;;;;;;;;;;;;;5003703;28;20410;-59
2022/04/16 15:00:16;;;;;;;;;;;;;;;;;;5004616;28;19906;-58
2022/04/16 15:02:42;;;;;;;;;;;;;;;;;;5004184;28;19905;-59
2022/04/16 15:05:24;;;;;;;;;;;;;;;;;;5005152;28;19977;-59
2022/04/16 15:13:44;;;;;;;;;;;;;;;;;;5005398;28;19913;-59
2022/04/16 15:16:25;;;;;;;;;;;;;;;;;;5001283;28;20004;-59
2022/04/16 15:19:05;;;;;;;;;;;;;;;;;;4999380;28;19913;-60
2022/04/16 15:21:34;;;;;;;;;;;;;;;;;;5003545;28;19930;-59
2022/04/16 15:24:00;;;;;;;;;;;;;;;;;;5002978;28;20038;-59
2022/04/16 15:26:36;;;;;;;;;;;;;;;;;;5004772;28;20384;-59
2022/04/16 15:32:15;;;;;;;;;;;;;;;;;;4997226;28;19913;-59
2022/04/16 15:34:41;;;;;;;;;;;;;;;;;;4996129;28;19913;-59
2022/04/16 15:37:07;;;;;;;;;;;;;;;;;;4996077;28;20004;-59
2022/04/16 15:39:39;;;;;;;;;;;;;;;;;;4995626;28;19956;-58
2022/04/16 15:42:08;;;;;;;;;;;;;;;;;;4996283;28;20320;-59
2022/04/16 15:44:42;;;;;;;;;;;;;;;;;;4994764;28;19964;-59
2022/04/16 15:47:12;;;;;;;;;;;;;;;;;;4995703;28;19913;-59
2022/04/16 15:50:03;;;;;;;;;;;;;;;;;;;;;
2022/04/16 15:52:45;;;;;;;;;;;;;;;;;;;;;
2022/04/16 15:55:20;;;;;;;;;;;;;;;;;;4995906;28;19988;-59
2022/04/16 15:57:52;;;;;;;;;;;;;;;;;;4994728;28;19949;-59
2022/04/16 16:00:22;;;;;;;;;;;;;;;;;;4993148;28;19906;-59
2022/04/16 16:03:00;;;;;;;;;;;;;;;;;;4995657;28;19929;-59
2022/04/16 16:05:38;;;;;;;;;;;;;;;;;;4994382;28;20387;-59
2022/04/16 16:08:17;;;;;;;;;;;;;;;;;;4994877;28;20344;-59
2022/04/16 16:10:52;;;;;;;;;;;;;;;;;;4994308;28;19949;-60
2022/04/16 16:16:20;;;;;;;;;;;;;;;;;;4973840;28;19906;-60
2022/04/16 16:19:05;;;;;;;;;;;;;;;;;;;;;
2022/04/16 16:24:48;;;;;;;;;;;;;;;;;;;;;
2022/04/16 16:30:13;;;;;;;;;;;;;;;;;;4897014;29;19929;-60
2022/04/16 16:32:49;;;;;;;;;;;;;;;;;;4906292;29;19935;-60
2022/04/16 16:35:28;;;;;;;;;;;;;;;;;;4963477;28;19960;-60
2022/04/16 16:37:55;;;;;;;;;;;;;;;;;;4982223;28;19913;-60
2022/04/16 16:40:34;;;;;;;;;;;;;;;;;;4983549;28;19938;-60
2022/04/16 16:43:18;;;;;;;;;;;;;;;;;;4983119;28;20269;-60
2022/04/16 16:45:55;;;;;;;;;;;;;;;;;;5004593;28;19933;-57
2022/04/16 16:48:24;;;;;;;;;;;;;;;;;;5004612;28;19916;-59
2022/04/16 16:50:52;;;;;;;;;;;;;;;;;;5005689;28;19985;-59
2022/04/16 16:53:24;;;;;;;;;;;;;;;;;;5006100;28;19906;-59
2022/04/16 16:55:59;;;;;;;;;;;;;;;;;;5006094;28;19940;-59
2022/04/16 16:58:31;;;;;;;;;;;;;;;;;;5005428;28;19906;-59
2022/04/16 17:01:17;;;;;;;;;;;;;;;;;;;;;
2022/04/16 17:06:44;;;;;;;;;;;;;;;;;;5006327;28;19929;-59
2022/04/16 17:09:20;;;;;;;;;;;;;;;;;;5005289;28;19918;-59
2022/04/16 17:20:01;;;;;;;;;;;;;;;;;;5005587;28;19912;-59
2022/04/16 17:22:40;;;;;;;;;;;;;;;;;;5006715;28;19913;-59
2022/04/16 17:25:09;;;;;;;;;;;;;;;;;;4984855;28;20417;-59
2022/04/16 17:27:46;;;;;;;;;;;;;;;;;;4966575;28;20008;-59
2022/04/16 17:33:11;;;;;;;;;;;;;;;;;;4941244;28;19920;-60
2022/04/16 17:41:19;;;;;;;;;;;;;;;;;;4971634;28;19965;-60
2022/04/16 17:43:48;;;;;;;;;;;;;;;;;;4984729;28;19937;-60
2022/04/16 17:46:20;;;;;;;;;;;;;;;;;;4984504;28;20540;-60
2022/04/16 17:48:52;;;;;;;;;;;;;;;;;;4984027;28;19918;-59
2022/04/16 17:51:19;;;;;;;;;;;;;;;;;;5001557;28;19905;-59
2022/04/16 17:53:45;;;;;;;;;;;;;;;;;;5006762;28;20299;-60
2022/04/16 17:56:40;;;;;;;;;;;;;;;;;;;;;
2022/04/16 17:59:13;;;;;;;;;;;;;;;;;;4964323;29;19986;-59
2022/04/16 18:01:42;;;;;;;;;;;;;;;;;;4994699;28;19992;-59
2022/04/16 18:07:12;;;;;;;;;;;;;;;;;;4981523;28;19925;-60
2022/04/16 18:09:41;;;;;;;;;;;;;;;;;;4987419;28;20385;-59
2022/04/16 18:12:09;;;;;;;;;;;;;;;;;;5004283;28;19930;-59
2022/04/16 18:14:36;;;;;;;;;;;;;;;;;;5005658;28;19905;-59
2022/04/16 18:17:22;;;;;;;;;;;;;;;;;;5005877;28;20348;-59
2022/04/16 18:20:08;;;;;;;;;;;;;;;;;;5004660;28;19906;-59
2022/04/16 18:28:37;;;;;;;;;;;;;;;;;;5001164;28;19935;-59
2022/04/16 18:31:16;;;;;;;;;;;;;;;;;;5003450;28;19914;-59
2022/04/16 18:33:45;;;;;;;;;;;;;;;;;;5006122;28;19920;-59
2022/04/16 18:36:17;;;;;;;;;;;;;;;;;;5005420;28;19913;-59
2022/04/16 18:38:45;;;;;;;;;;;;;;;;;;5005442;28;19920;-59
2022/04/16 18:41:13;;;;;;;;;;;;;;;;;;5003760;28;19937;-59
2022/04/16 18:43:39;;;;;;;;;;;;;;;;;;5004057;28;19914;-59
2022/04/16 18:49:10;;;;;;;;;;;;;;;;;;4999789;28;19914;-59
2022/04/16 18:51:39;;;;;;;;;;;;;;;;;;5005599;28;19916;-60
2022/04/16 18:54:11;;;;;;;;;;;;;;;;;;4993267;28;19906;-59
2022/04/16 18:56:38;;;;;;;;;;;;;;;;;;5005463;28;19929;-60
2022/04/16 19:07:19;;;;;;;;;;;;;;;;;;5007073;28;20022;-58
2022/04/16 19:09:48;;;;;;;;;;;;;;;;;;5008753;28;19969;-58
2022/04/16 19:12:17;;;;;;;;;;;;;;;;;;5005420;28;19952;-58
2022/04/16 19:14:53;;;;;;;;;;;;;;;;;;5009333;28;19913;-58
2022/04/16 19:17:24;;;;;;;;;;;;;;;;;;5008084;28;19902;-58
2022/04/16 19:22:39;;;;;;;;;;;;;;;;;;5004881;28;19906;-58
2022/04/16 19:25:21;;;;;;;;;;;;;;;;;;5009191;28;19902;-58
2022/04/16 19:27:51;;;;;;;;;;;;;;;;;;5008098;28;20405;-58
2022/04/16 19:30:27;;;;;;;;;;;;;;;;;;5008384;28;19957;-59
2022/04/16 19:35:52;;;;;;;;;;;;;;;;;;4996940;28;19977;-59
2022/04/16 19:38:33;;;;;;;;;;;;;;;;;;5008051;28;19905;-59
2022/04/16 19:44:04;;;;;;;;;;;;;;;;;;;;;
2022/04/16 19:46:45;;;;;;;;;;;;;;;;;;4989752;28;19941;-59
2022/04/16 19:49:13;;;;;;;;;;;;;;;;;;5008581;28;19987;-59
2022/04/16 19:51:55;;;;;;;;;;;;;;;;;;5008657;28;19921;-59
2022/04/16 19:54:30;;;;;;;;;;;;;;;;;;5005045;28;19989;-59
2022/04/16 19:57:00;;;;;;;;;;;;;;;;;;5003964;28;19916;-59
2022/04/16 19:59:26;;;;;;;;;;;;;;;;;;5006609;28;19924;-59
2022/04/16 20:01:55;;;;;;;;;;;;;;;;;;5007906;28;19937;-59
2022/04/16 20:04:41;;;;;;;;;;;;;;;;;;5007774;28;20275;-59
2022/04/16 20:07:23;;;;;;;;;;;;;;;;;;;;;
2022/04/16 20:12:36;;;;;;;;;;;;;;;;;;5008675;28;19913;-58
2022/04/16 20:15:05;;;;;;;;;;;;;;;;;;5008236;28;19928;-59
2022/04/16 20:17:34;;;;;;;;;;;;;;;;;;5007224;28;19914;-59
2022/04/16 20:20:09;;;;;;;;;;;;;;;;;;5007393;28;19906;-58
2022/04/16 20:22:54;;;;;;;;;;;;;;;;;;;;;
2022/04/16 20:25:26;;;;;;;;;;;;;;;;;;5008546;28;19929;-58
2022/04/16 20:27:56;;;;;;;;;;;;;;;;;;5007006;28;19937;-58
2022/04/16 20:30:28;;;;;;;;;;;;;;;;;;5007705;28;19944;-59
2022/04/16 20:33:01;;;;;;;;;;;;;;;;;;5007590;28;19949;-59
2022/04/16 20:35:39;;;;;;;;;;;;;;;;;;5007499;28;19975;-58
2022/04/16 20:46:35;;;;;;;;;;;;;;;;;;5007958;28;19912;-59
2022/04/16 20:49:23;;;;;;;;;;;;;;;;;;5006313;28;19913;-59
2022/04/16 21:00:26;;;;;;;;;;;;;;;;;;5006437;28;19916;-59
2022/04/16 21:05:41;;;;;;;;;;;;;;;;;;5000639;28;19964;-59
2022/04/16 21:10:55;;;;;;;;;;;;;;;;;;5007502;28;19908;-59
2022/04/16 21:16:15;;;;;;;;;;;;;;;;;;5007484;28;19917;-59
2022/04/16 21:18:45;;;;;;;;;;;;;;;;;;5004290;28;19905;-59
2022/04/16 21:24:10;;;;;;;;;;;;;;;;;;4984297;28;20411;-59
2022/04/16 21:27:01;;;;;;;;;;;;;;;;;;;;;
2022/04/16 21:29:49;;;;;;;;;;;;;;;;;;4999673;28;19963;-59
2022/04/16 21:32:35;;;;;;;;;;;;;;;;;;;;;
2022/04/16 21:35:01;;;;;;;;;;;;;;;;;;4972604;28;19955;-59
2022/04/16 21:37:30;;;;;;;;;;;;;;;;;;5006108;28;19937;-59
2022/04/16 21:40:05;;;;;;;;;;;;;;;;;;5007287;28;19910;-59
2022/04/16 21:42:33;;;;;;;;;;;;;;;;;;5007014;28;19909;-59
2022/04/16 21:45:04;;;;;;;;;;;;;;;;;;5006615;28;19961;-59
2022/04/16 21:47:33;;;;;;;;;;;;;;;;;;5005976;28;19972;-59
2022/04/16 21:50:00;;;;;;;;;;;;;;;;;;5005598;28;19964;-59
2022/04/16 21:52:31;;;;;;;;;;;;;;;;;;5006726;28;19925;-59
2022/04/16 21:55:01;;;;;;;;;;;;;;;;;;5006717;28;19972;-59
2022/04/16 21:57:30;;;;;;;;;;;;;;;;;;4964922;29;19958;-58
2022/04/16 22:02:49;;;;;;;;;;;;;;;;;;5006833;28;19930;-59
2022/04/16 22:08:16;;;;;;;;;;;;;;;;;;4997912;28;19940;-59
2022/04/16 22:10:55;;;;;;;;;;;;;;;;;;5007217;28;19969;-59
2022/04/16 22:13:23;;;;;;;;;;;;;;;;;;5007331;28;19906;-59
2022/04/16 22:16:04;;;;;;;;;;;;;;;;;;4999729;28;19973;-59
2022/04/16 22:21:17;;;;;;;;;;;;;;;;;;5006455;28;19913;-59
2022/04/16 22:23:44;;;;;;;;;;;;;;;;;;5006514;28;20379;-59
2022/04/16 22:26:14;;;;;;;;;;;;;;;;;;5006279;28;19941;-59
2022/04/16 22:28:44;;;;;;;;;;;;;;;;;;5005209;28;19916;-58
2022/04/16 22:33:58;;;;;;;;;;;;;;;;;;5006346;28;19952;-59
2022/04/16 22:36:30;;;;;;;;;;;;;;;;;;5004362;28;19913;-59
2022/04/16 22:41:42;;;;;;;;;;;;;;;;;;5007387;28;19929;-59
2022/04/16 22:44:17;;;;;;;;;;;;;;;;;;5008145;28;20267;-59
2022/04/16 22:49:41;;;;;;;;;;;;;;;;;;5005893;28;20309;-58
2022/04/16 22:52:20;;;;;;;;;;;;;;;;;;5009988;28;19909;-59
2022/04/16 22:54:49;;;;;;;;;;;;;;;;;;5010043;28;19977;-58
2022/04/16 22:57:18;;;;;;;;;;;;;;;;;;5009193;28;19936;-59
2022/04/16 23:02:33;;;;;;;;;;;;;;;;;;5009346;28;19913;-58
2022/04/16 23:05:00;;;;;;;;;;;;;;;;;;5009855;28;19905;-59
2022/04/16 23:07:35;;;;;;;;;;;;;;;;;;5008293;28;19918;-59
2022/04/16 23:18:48;;;;;;;;;;;;;;;;;;5008298;28;19913;-59
2022/04/16 23:21:27;;;;;;;;;;;;;;;;;;5009689;28;19937;-59
2022/04/16 23:24:02;;;;;;;;;;;;;;;;;;5009745;28;19906;-58